sensor_id;sensor_type;location;lat;lon;timestamp;pressure;altitude;pressure_sealevel;temperature;humidity
9129;BME280;4599;50.906;6.786;2022-07-29T00:00:28;75568.03;;;-142.83;45.11
9129;BME280;4599;50.906;6.786;2022-07-29T00:04:30;75561.81;;;-142.83;44.60
9129;BME280;4599;50.906;6.786;2022-07-29T00:08:31;75555.59;;;-142.83;44.84
9129;BME280;4599;50.906;6.786;2022-07-29T00:12:33;75553.50;;;-142.83;44.67
9129;BME280;4599;50.906;6.786;2022-07-29T00:16:36;75555.59;;;-142.83;44.82
9129;BME280;4599;50.906;6.786;2022-07-29T00:20:38;75557.66;;;-142.83;44.80
9129;BME280;4599;50.906;6.786;2022-07-29T00:24:40;75559.75;;;-142.83;44.62
9129;BME280;4599;50.906;6.786;2022-07-29T00:28:41;75551.44;;;-142.83;44.80
9129;BME280;4599;50.906;6.786;2022-07-29T00:32:45;75547.28;;;-142.83;45.30
9129;BME280;4599;50.906;6.786;2022-07-29T00:36:46;75541.06;;;-142.83;45.04
9129;BME280;4599;50.906;6.786;2022-07-29T00:40:48;75536.91;;;-142.83;45.62
9129;BME280;4599;50.906;6.786;2022-07-29T00:44:49;75532.75;;;-142.83;44.51
9129;BME280;4599;50.906;6.786;2022-07-29T00:48:53;75534.84;;;-142.83;44.33
9129;BME280;4599;50.906;6.786;2022-07-29T00:52:54;75539.00;;;-142.83;45.54
9129;BME280;4599;50.906;6.786;2022-07-29T00:56:57;75532.75;;;-142.83;44.33
9129;BME280;4599;50.906;6.786;2022-07-29T01:00:59;75530.69;;;-142.83;44.37
9129;BME280;4599;50.906;6.786;2022-07-29T01:05:04;75534.84;;;-142.83;45.30
9129;BME280;4599;50.906;6.786;2022-07-29T01:09:06;75530.69;;;-142.83;44.78
9129;BME280;4599;50.906;6.786;2022-07-29T01:13:11;75530.69;;;-142.83;45.16
9129;BME280;4599;50.906;6.786;2022-07-29T01:17:20;75534.84;;;-142.83;45.43
9129;BME280;4599;50.906;6.786;2022-07-29T01:21:46;75539.00;;;-142.83;45.42
9129;BME280;4599;50.906;6.786;2022-07-29T01:30:35;75553.50;;;-142.83;46.34
9129;BME280;4599;50.906;6.786;2022-07-29T01:34:42;75570.13;;;-142.83;47.07
9129;BME280;4599;50.906;6.786;2022-07-29T01:38:54;75578.44;;;-142.83;46.97
9129;BME280;4599;50.906;6.786;2022-07-29T01:43:02;75580.50;;;-142.83;48.11
9129;BME280;4599;50.906;6.786;2022-07-29T01:47:11;75576.34;;;-142.83;48.64
9129;BME280;4599;50.906;6.786;2022-07-29T01:51:16;75588.81;;;-142.83;48.30
9129;BME280;4599;50.906;6.786;2022-07-29T01:55:22;75588.81;;;-142.83;48.33
9129;BME280;4599;50.906;6.786;2022-07-29T01:59:28;75605.41;;;-142.83;47.94
9129;BME280;4599;50.906;6.786;2022-07-29T02:03:33;75605.41;;;-142.83;48.21
9129;BME280;4599;50.906;6.786;2022-07-29T02:07:37;75626.16;;;-142.83;48.80
9129;BME280;4599;50.906;6.786;2022-07-29T02:11:47;75642.78;;;-142.83;49.46
9129;BME280;4599;50.906;6.786;2022-07-29T02:15:50;75646.94;;;-142.83;49.40
9129;BME280;4599;50.906;6.786;2022-07-29T02:19:57;75653.16;;;-142.83;50.12
9129;BME280;4599;50.906;6.786;2022-07-29T02:24:01;75657.31;;;-142.83;50.36
9129;BME280;4599;50.906;6.786;2022-07-29T02:28:05;75678.06;;;-142.83;51.27
9129;BME280;4599;50.906;6.786;2022-07-29T02:32:09;75688.44;;;-142.83;51.26
9129;BME280;4599;50.906;6.786;2022-07-29T02:36:13;75676.00;;;-142.83;51.99
9129;BME280;4599;50.906;6.786;2022-07-29T02:40:16;75694.69;;;-142.83;51.99
9129;BME280;4599;50.906;6.786;2022-07-29T02:44:19;75717.50;;;-142.83;52.81
9129;BME280;4599;50.906;6.786;2022-07-29T02:48:26;75723.75;;;-142.83;52.95
9129;BME280;4599;50.906;6.786;2022-07-29T02:52:35;75738.28;;;-142.83;52.07
9129;BME280;4599;50.906;6.786;2022-07-29T02:56:40;75740.34;;;-142.83;52.60
9129;BME280;4599;50.906;6.786;2022-07-29T03:00:46;75746.56;;;-142.83;53.11
9129;BME280;4599;50.906;6.786;2022-07-29T03:04:49;75752.81;;;-142.83;53.43
9129;BME280;4599;50.906;6.786;2022-07-29T03:08:54;75736.19;;;-142.83;52.33
9129;BME280;4599;50.906;6.786;2022-07-29T03:12:57;75707.13;;;-142.83;50.86
9129;BME280;4599;50.906;6.786;2022-07-29T03:16:59;75698.81;;;-142.83;49.58
9129;BME280;4599;50.906;6.786;2022-07-29T03:21:02;75682.22;;;-142.83;48.59
9129;BME280;4599;50.906;6.786;2022-07-29T03:25:09;75692.59;;;-142.83;48.68
9129;BME280;4599;50.906;6.786;2022-07-29T03:29:11;75692.59;;;-142.83;48.76
9129;BME280;4599;50.906;6.786;2022-07-29T03:33:14;75702.97;;;-142.83;48.28
9129;BME280;4599;50.906;6.786;2022-07-29T03:37:16;75711.28;;;-142.83;48.54
9129;BME280;4599;50.906;6.786;2022-07-29T03:41:20;75715.44;;;-142.83;49.23
9129;BME280;4599;50.906;6.786;2022-07-29T03:45:25;75709.19;;;-142.83;48.83
9129;BME280;4599;50.906;6.786;2022-07-29T03:49:28;75700.91;;;-142.83;48.21
9129;BME280;4599;50.906;6.786;2022-07-29T03:53:31;75729.97;;;-142.83;48.44
9129;BME280;4599;50.906;6.786;2022-07-29T03:57:34;75713.34;;;-142.83;48.40
9129;BME280;4599;50.906;6.786;2022-07-29T04:01:38;75713.34;;;-142.83;48.66
9129;BME280;4599;50.906;6.786;2022-07-29T04:05:40;75721.66;;;-142.83;48.88
9129;BME280;4599;50.906;6.786;2022-07-29T04:09:42;75723.75;;;-142.83;48.80
9129;BME280;4599;50.906;6.786;2022-07-29T04:13:45;75734.13;;;-142.83;48.98
9129;BME280;4599;50.906;6.786;2022-07-29T04:17:46;75740.34;;;-142.83;49.56
9129;BME280;4599;50.906;6.786;2022-07-29T04:21:49;75752.81;;;-142.83;50.20
9129;BME280;4599;50.906;6.786;2022-07-29T04:25:52;75748.66;;;-142.83;50.70
9129;BME280;4599;50.906;6.786;2022-07-29T04:29:55;75759.03;;;-142.83;50.51
9129;BME280;4599;50.906;6.786;2022-07-29T04:33:58;75771.47;;;-142.83;50.96
9129;BME280;4599;50.906;6.786;2022-07-29T04:37:59;75771.47;;;-142.83;51.37
9129;BME280;4599;50.906;6.786;2022-07-29T04:42:01;75773.56;;;-142.83;51.37
9129;BME280;4599;50.906;6.786;2022-07-29T04:46:06;75775.63;;;-142.83;51.90
9129;BME280;4599;50.906;6.786;2022-07-29T04:50:09;75781.88;;;-142.83;52.65
9129;BME280;4599;50.906;6.786;2022-07-29T04:54:11;75773.56;;;-142.83;52.86
9129;BME280;4599;50.906;6.786;2022-07-29T04:58:13;75783.94;;;-142.83;52.75
9129;BME280;4599;50.906;6.786;2022-07-29T05:02:16;75792.25;;;-142.83;53.02
9129;BME280;4599;50.906;6.786;2022-07-29T05:06:18;75779.78;;;-142.83;53.20
9129;BME280;4599;50.906;6.786;2022-07-29T05:10:19;75800.53;;;-142.83;54.30
9129;BME280;4599;50.906;6.786;2022-07-29T05:14:21;75800.53;;;-142.83;54.45
9129;BME280;4599;50.906;6.786;2022-07-29T05:18:24;75815.06;;;-142.83;54.69
9129;BME280;4599;50.906;6.786;2022-07-29T05:22:26;75810.94;;;-142.83;55.03
9129;BME280;4599;50.906;6.786;2022-07-29T05:26:28;75817.16;;;-142.83;54.86
9129;BME280;4599;50.906;6.786;2022-07-29T05:30:30;75825.47;;;-142.83;55.17
9129;BME280;4599;50.906;6.786;2022-07-29T05:34:33;75817.16;;;-142.83;55.04
9129;BME280;4599;50.906;6.786;2022-07-29T05:38:35;75819.22;;;-142.83;55.88
9129;BME280;4599;50.906;6.786;2022-07-29T05:42:37;75837.91;;;-142.83;55.31
9129;BME280;4599;50.906;6.786;2022-07-29T05:46:39;75823.38;;;-142.83;55.58
9129;BME280;4599;50.906;6.786;2022-07-29T05:50:42;75831.69;;;-142.83;55.53
9129;BME280;4599;50.906;6.786;2022-07-29T05:54:45;75829.59;;;-142.83;55.58
9129;BME280;4599;50.906;6.786;2022-07-29T05:58:46;75831.69;;;-142.83;55.95
9129;BME280;4599;50.906;6.786;2022-07-29T06:02:48;75831.69;;;-142.83;55.56
9129;BME280;4599;50.906;6.786;2022-07-29T06:06:51;75848.28;;;-142.83;55.97
9129;BME280;4599;50.906;6.786;2022-07-29T06:10:52;75856.59;;;-142.83;56.33
9129;BME280;4599;50.906;6.786;2022-07-29T06:14:54;75854.53;;;-142.83;55.50
9129;BME280;4599;50.906;6.786;2022-07-29T06:18:55;75833.75;;;-142.83;55.88
9129;BME280;4599;50.906;6.786;2022-07-29T06:22:59;75842.06;;;-142.83;55.75
9129;BME280;4599;50.906;6.786;2022-07-29T06:27:01;75860.75;;;-142.83;56.80
9129;BME280;4599;50.906;6.786;2022-07-29T06:31:03;75854.53;;;-142.83;59.87
9129;BME280;4599;50.906;6.786;2022-07-29T06:35:05;75864.91;;;-142.83;60.99
9129;BME280;4599;50.906;6.786;2022-07-29T06:39:28;75869.06;;;-142.83;60.23
9129;BME280;4599;50.906;6.786;2022-07-29T06:43:32;75852.44;;;-142.83;61.12
9129;BME280;4599;50.906;6.786;2022-07-29T06:47:33;75856.59;;;-142.83;60.77
9129;BME280;4599;50.906;6.786;2022-07-29T06:51:35;75846.22;;;-142.83;63.00
9129;BME280;4599;50.906;6.786;2022-07-29T06:55:38;75840.00;;;-142.83;60.58
9129;BME280;4599;50.906;6.786;2022-07-29T06:59:40;75827.53;;;-142.83;60.10
9129;BME280;4599;50.906;6.786;2022-07-29T07:03:42;75796.41;;;-142.83;58.04
9129;BME280;4599;50.906;6.786;2022-07-29T07:07:43;75796.41;;;-142.83;57.88
9129;BME280;4599;50.906;6.786;2022-07-29T07:11:46;75788.09;;;-142.83;58.29
9129;BME280;4599;50.906;6.786;2022-07-29T07:15:50;75783.94;;;-142.83;57.01
9129;BME280;4599;50.906;6.786;2022-07-29T07:19:52;75779.78;;;-142.83;56.24
9129;BME280;4599;50.906;6.786;2022-07-29T07:23:54;75754.88;;;-142.83;56.26
9129;BME280;4599;50.906;6.786;2022-07-29T07:27:57;75754.88;;;-142.83;56.63
9129;BME280;4599;50.906;6.786;2022-07-29T07:31:59;75759.03;;;-142.83;56.55
9129;BME280;4599;50.906;6.786;2022-07-29T07:36:02;75767.34;;;-142.83;56.55
9129;BME280;4599;50.906;6.786;2022-07-29T07:40:04;75775.63;;;-142.83;58.21
9129;BME280;4599;50.906;6.786;2022-07-29T07:44:09;75783.94;;;-142.83;58.85
9129;BME280;4599;50.906;6.786;2022-07-29T07:48:16;75794.31;;;-142.83;63.18
9129;BME280;4599;50.906;6.786;2022-07-29T07:52:20;75808.84;;;-142.83;63.02
9129;BME280;4599;50.906;6.786;2022-07-29T07:56:22;75796.41;;;-142.83;64.62
9129;BME280;4599;50.906;6.786;2022-07-29T08:00:25;75810.94;;;-142.83;64.83
9129;BME280;4599;50.906;6.786;2022-07-29T08:04:27;75819.22;;;-142.83;64.22
9129;BME280;4599;50.906;6.786;2022-07-29T08:08:30;75800.53;;;-142.83;65.20
9129;BME280;4599;50.906;6.786;2022-07-29T08:12:33;75788.09;;;-142.83;62.35
9129;BME280;4599;50.906;6.786;2022-07-29T08:16:36;75775.63;;;-142.83;62.56
9129;BME280;4599;50.906;6.786;2022-07-29T08:20:38;75759.03;;;-142.83;61.49
9129;BME280;4599;50.906;6.786;2022-07-29T08:24:40;75756.94;;;-142.83;61.87
9129;BME280;4599;50.906;6.786;2022-07-29T08:28:43;75734.13;;;-142.83;62.20
9129;BME280;4599;50.906;6.786;2022-07-29T08:32:48;75734.13;;;-142.83;61.45
9129;BME280;4599;50.906;6.786;2022-07-29T08:36:56;75725.81;;;-142.83;60.97
9129;BME280;4599;50.906;6.786;2022-07-29T08:40:58;75719.59;;;-142.83;62.04
9129;BME280;4599;50.906;6.786;2022-07-29T08:45:00;75711.28;;;-142.83;61.41
9129;BME280;4599;50.906;6.786;2022-07-29T08:49:03;75725.81;;;-142.83;62.85
9129;BME280;4599;50.906;6.786;2022-07-29T08:53:05;75771.47;;;-142.83;63.95
9129;BME280;4599;50.906;6.786;2022-07-29T08:57:09;75788.09;;;-142.83;63.29
9129;BME280;4599;50.906;6.786;2022-07-29T09:01:16;75759.03;;;-142.83;63.56
9129;BME280;4599;50.906;6.786;2022-07-29T09:05:23;75746.56;;;-142.83;62.68
9129;BME280;4599;50.906;6.786;2022-07-29T09:09:25;75711.28;;;-142.83;62.81
9129;BME280;4599;50.906;6.786;2022-07-29T09:13:28;75646.94;;;-142.83;60.20
9129;BME280;4599;50.906;6.786;2022-07-29T09:17:43;75543.13;;;-142.83;57.73
9129;BME280;4599;50.906;6.786;2022-07-29T09:21:47;75435.19;;;-142.83;55.12
9129;BME280;4599;50.906;6.786;2022-07-29T09:25:48;75254.59;;;-142.83;49.61
9129;BME280;4599;50.906;6.786;2022-07-29T09:29:58;75111.41;;;-142.83;45.96
9129;BME280;4599;50.906;6.786;2022-07-29T09:34:00;75167.44;;;-142.83;46.81
9129;BME280;4599;50.906;6.786;2022-07-29T09:38:11;75213.09;;;-142.83;46.32
9129;BME280;4599;50.906;6.786;2022-07-29T09:42:12;75215.19;;;-142.83;45.86
9129;BME280;4599;50.906;6.786;2022-07-29T09:46:17;75227.63;;;-142.83;45.57
9129;BME280;4599;50.906;6.786;2022-07-29T09:50:19;75231.78;;;-142.83;45.33
9129;BME280;4599;50.906;6.786;2022-07-29T09:54:23;75256.69;;;-142.83;44.51
9129;BME280;4599;50.906;6.786;2022-07-29T09:58:25;75269.13;;;-142.83;45.56
9129;BME280;4599;50.906;6.786;2022-07-29T10:02:29;75252.53;;;-142.83;44.92
9129;BME280;4599;50.906;6.786;2022-07-29T10:06:30;75231.78;;;-142.83;45.59
9129;BME280;4599;50.906;6.786;2022-07-29T10:10:36;75196.50;;;-142.83;45.44
9129;BME280;4599;50.906;6.786;2022-07-29T10:14:38;75148.75;;;-142.83;44.01
9129;BME280;4599;50.906;6.786;2022-07-29T10:18:40;75090.63;;;-142.83;44.64
9129;BME280;4599;50.906;6.786;2022-07-29T10:22:42;74947.44;;;-142.83;41.03
9129;BME280;4599;50.906;6.786;2022-07-29T10:26:56;74795.91;;;-142.83;39.58
9129;BME280;4599;50.906;6.786;2022-07-29T10:31:00;74538.56;;;-142.83;36.05
9129;BME280;4599;50.906;6.786;2022-07-29T10:35:15;74530.28;;;-142.83;35.51
9129;BME280;4599;50.906;6.786;2022-07-29T10:39:32;74430.66;;;-142.83;36.72
9129;BME280;4599;50.906;6.786;2022-07-29T10:43:47;74341.44;;;-142.83;34.19
9129;BME280;4599;50.906;6.786;2022-07-29T10:48:02;74368.41;;;-142.83;33.76
9129;BME280;4599;50.906;6.786;2022-07-29T10:52:09;74277.09;;;-142.83;33.36
9129;BME280;4599;50.906;6.786;2022-07-29T10:56:23;74221.06;;;-142.83;32.00
9129;BME280;4599;50.906;6.786;2022-07-29T11:00:29;74169.19;;;-142.83;31.79
9129;BME280;4599;50.906;6.786;2022-07-29T11:05:04;74148.44;;;-142.83;31.68
9129;BME280;4599;50.906;6.786;2022-07-29T11:09:16;74129.75;;;-142.83;31.77
9129;BME280;4599;50.906;6.786;2022-07-29T11:13:46;74142.22;;;-142.83;31.83
9129;BME280;4599;50.906;6.786;2022-07-29T11:18:09;74148.44;;;-142.83;31.38
9129;BME280;4599;50.906;6.786;2022-07-29T11:22:31;74111.09;;;-142.83;31.48
9129;BME280;4599;50.906;6.786;2022-07-29T11:26:33;74148.44;;;-142.83;30.93
9129;BME280;4599;50.906;6.786;2022-07-29T11:30:48;74165.03;;;-142.83;31.12
9129;BME280;4599;50.906;6.786;2022-07-29T11:35:14;74140.13;;;-142.83;30.47
9129;BME280;4599;50.906;6.786;2022-07-29T11:39:28;74160.88;;;-142.83;31.09
9129;BME280;4599;50.906;6.786;2022-07-29T11:43:45;74245.97;;;-142.83;30.75
9129;BME280;4599;50.906;6.786;2022-07-29T11:47:52;74341.44;;;-142.83;31.71
9129;BME280;4599;50.906;6.786;2022-07-29T11:51:57;74235.59;;;-142.83;31.14
9129;BME280;4599;50.906;6.786;2022-07-29T11:56:00;74136.00;;;-142.83;30.05
9129;BME280;4599;50.906;6.786;2022-07-29T12:00:05;74202.38;;;-142.83;31.23
9129;BME280;4599;50.906;6.786;2022-07-29T12:04:12;74231.44;;;-142.83;30.27
9129;BME280;4599;50.906;6.786;2022-07-29T12:08:18;74339.34;;;-142.83;31.81
9129;BME280;4599;50.906;6.786;2022-07-29T12:12:20;74306.16;;;-142.83;31.31
9129;BME280;4599;50.906;6.786;2022-07-29T12:16:34;74285.41;;;-142.83;30.73
9129;BME280;4599;50.906;6.786;2022-07-29T12:20:36;74355.94;;;-142.83;31.68
9129;BME280;4599;50.906;6.786;2022-07-29T12:24:48;74387.09;;;-142.83;32.32
9129;BME280;4599;50.906;6.786;2022-07-29T12:28:56;74376.72;;;-142.83;31.81
9129;BME280;4599;50.906;6.786;2022-07-29T12:33:10;74291.63;;;-142.83;31.01
9129;BME280;4599;50.906;6.786;2022-07-29T12:37:12;74302.00;;;-142.83;31.35
9129;BME280;4599;50.906;6.786;2022-07-29T12:41:15;74277.09;;;-142.83;30.43
9129;BME280;4599;50.906;6.786;2022-07-29T12:45:17;74179.56;;;-142.83;30.34
9129;BME280;4599;50.906;6.786;2022-07-29T12:49:21;74150.50;;;-142.83;29.89
9129;BME280;4599;50.906;6.786;2022-07-29T12:53:23;74227.28;;;-142.83;30.79
9129;BME280;4599;50.906;6.786;2022-07-29T12:57:27;74167.13;;;-142.83;29.57
9129;BME280;4599;50.906;6.786;2022-07-29T13:01:36;74144.28;;;-142.83;29.41
9129;BME280;4599;50.906;6.786;2022-07-29T13:05:42;74063.38;;;-142.83;28.75
9129;BME280;4599;50.906;6.786;2022-07-29T13:09:49;74065.44;;;-142.83;29.18
9129;BME280;4599;50.906;6.786;2022-07-29T13:13:52;73928.50;;;-142.83;28.48
9129;BME280;4599;50.906;6.786;2022-07-29T13:18:28;74046.75;;;-142.83;29.86
9129;BME280;4599;50.906;6.786;2022-07-29T13:22:30;74048.84;;;-142.83;29.00
9129;BME280;4599;50.906;6.786;2022-07-29T13:26:32;74175.41;;;-142.83;30.21
9129;BME280;4599;50.906;6.786;2022-07-29T13:30:35;74011.50;;;-142.83;29.43
9129;BME280;4599;50.906;6.786;2022-07-29T13:34:45;74007.34;;;-142.83;30.10
9129;BME280;4599;50.906;6.786;2022-07-29T13:38:46;73953.38;;;-142.83;28.86
9129;BME280;4599;50.906;6.786;2022-07-29T13:42:48;73938.88;;;-142.83;28.75
9129;BME280;4599;50.906;6.786;2022-07-29T13:46:51;73982.44;;;-142.83;28.41
9129;BME280;4599;50.906;6.786;2022-07-29T13:50:53;73999.03;;;-142.83;29.28
9129;BME280;4599;50.906;6.786;2022-07-29T13:54:55;74202.38;;;-142.83;29.97
9129;BME280;4599;50.906;6.786;2022-07-29T13:58:56;74162.97;;;-142.83;30.82
9129;BME280;4599;50.906;6.786;2022-07-29T14:02:59;74214.84;;;-142.83;30.38
9129;BME280;4599;50.906;6.786;2022-07-29T14:07:01;74231.44;;;-142.83;31.48
9129;BME280;4599;50.906;6.786;2022-07-29T14:11:06;74326.91;;;-142.83;31.73
9129;BME280;4599;50.906;6.786;2022-07-29T14:15:08;74414.06;;;-142.83;33.11
9129;BME280;4599;50.906;6.786;2022-07-29T14:19:11;74470.09;;;-142.83;33.64
9129;BME280;4599;50.906;6.786;2022-07-29T14:23:13;74530.28;;;-142.83;34.38
9129;BME280;4599;50.906;6.786;2022-07-29T14:27:16;74480.47;;;-142.83;33.30
9129;BME280;4599;50.906;6.786;2022-07-29T14:31:18;74526.13;;;-142.83;34.05
9129;BME280;4599;50.906;6.786;2022-07-29T14:35:22;74555.19;;;-142.83;34.08
9129;BME280;4599;50.906;6.786;2022-07-29T14:39:23;74530.28;;;-142.83;33.85
9129;BME280;4599;50.906;6.786;2022-07-29T14:43:33;74528.19;;;-142.83;34.05
9129;BME280;4599;50.906;6.786;2022-07-29T14:47:34;74584.22;;;-142.83;35.33
9129;BME280;4599;50.906;6.786;2022-07-29T14:51:37;74658.94;;;-142.83;35.73
9129;BME280;4599;50.906;6.786;2022-07-29T14:55:40;74656.88;;;-142.83;34.94
9129;BME280;4599;50.906;6.786;2022-07-29T14:59:42;74650.63;;;-142.83;35.87
9129;BME280;4599;50.906;6.786;2022-07-29T15:03:45;74654.78;;;-142.83;34.90
9129;BME280;4599;50.906;6.786;2022-07-29T15:07:48;74623.66;;;-142.83;34.92
9129;BME280;4599;50.906;6.786;2022-07-29T15:11:50;74650.63;;;-142.83;33.85
9129;BME280;4599;50.906;6.786;2022-07-29T15:15:52;74654.78;;;-142.83;35.12
9129;BME280;4599;50.906;6.786;2022-07-29T15:20:00;74638.19;;;-142.83;34.70
9129;BME280;4599;50.906;6.786;2022-07-29T15:24:03;74683.84;;;-142.83;34.49
9129;BME280;4599;50.906;6.786;2022-07-29T15:28:05;74681.78;;;-142.83;34.99
9129;BME280;4599;50.906;6.786;2022-07-29T15:32:07;74692.16;;;-142.83;35.21
9129;BME280;4599;50.906;6.786;2022-07-29T15:36:09;74683.84;;;-142.83;35.20
9129;BME280;4599;50.906;6.786;2022-07-29T15:40:12;74721.19;;;-142.83;34.86
9129;BME280;4599;50.906;6.786;2022-07-29T15:44:14;74721.19;;;-142.83;35.00
9129;BME280;4599;50.906;6.786;2022-07-29T15:48:15;74729.50;;;-142.83;33.25
9129;BME280;4599;50.906;6.786;2022-07-29T15:52:19;74785.53;;;-142.83;32.96
9129;BME280;4599;50.906;6.786;2022-07-29T15:56:28;74808.38;;;-142.83;34.23
9129;BME280;4599;50.906;6.786;2022-07-29T16:00:30;74804.22;;;-142.83;34.60
9129;BME280;4599;50.906;6.786;2022-07-29T16:04:31;74791.78;;;-142.83;34.44
9129;BME280;4599;50.906;6.786;2022-07-29T16:08:33;74787.63;;;-142.83;33.53
9129;BME280;4599;50.906;6.786;2022-07-29T16:12:37;74804.22;;;-142.83;34.51
9129;BME280;4599;50.906;6.786;2022-07-29T16:16:38;74816.66;;;-142.83;34.63
9129;BME280;4599;50.906;6.786;2022-07-29T16:20:40;74841.56;;;-142.83;35.36
9129;BME280;4599;50.906;6.786;2022-07-29T16:24:42;74851.97;;;-142.83;35.98
9129;BME280;4599;50.906;6.786;2022-07-29T16:28:46;74893.47;;;-142.83;35.85
9129;BME280;4599;50.906;6.786;2022-07-29T16:32:49;74874.78;;;-142.83;35.51
9129;BME280;4599;50.906;6.786;2022-07-29T16:36:50;74878.94;;;-142.83;35.29
9129;BME280;4599;50.906;6.786;2022-07-29T16:40:52;74858.19;;;-142.83;35.52
9129;BME280;4599;50.906;6.786;2022-07-29T16:44:55;74858.19;;;-142.83;36.73
9129;BME280;4599;50.906;6.786;2022-07-29T16:48:57;74862.34;;;-142.83;35.47
9129;BME280;4599;50.906;6.786;2022-07-29T16:52:59;74845.72;;;-142.83;36.13
9129;BME280;4599;50.906;6.786;2022-07-29T16:57:00;74858.19;;;-142.83;36.76
9129;BME280;4599;50.906;6.786;2022-07-29T17:01:04;74883.09;;;-142.83;37.54
9129;BME280;4599;50.906;6.786;2022-07-29T17:05:06;74924.59;;;-142.83;41.29
9129;BME280;4599;50.906;6.786;2022-07-29T17:09:10;74976.47;;;-142.83;42.59
9129;BME280;4599;50.906;6.786;2022-07-29T17:13:12;74984.78;;;-142.83;44.69
9129;BME280;4599;50.906;6.786;2022-07-29T17:17:15;74984.78;;;-142.83;42.19
9129;BME280;4599;50.906;6.786;2022-07-29T17:21:22;74986.88;;;-142.83;43.07
9129;BME280;4599;50.906;6.786;2022-07-29T17:25:24;74978.56;;;-142.83;41.48
9129;BME280;4599;50.906;6.786;2022-07-29T17:29:25;74945.34;;;-142.83;40.62
9129;BME280;4599;50.906;6.786;2022-07-29T17:33:28;74986.88;;;-142.83;42.17
9129;BME280;4599;50.906;6.786;2022-07-29T17:37:30;74974.41;;;-142.83;42.15
9129;BME280;4599;50.906;6.786;2022-07-29T17:41:32;74968.19;;;-142.83;41.00
9129;BME280;4599;50.906;6.786;2022-07-29T17:45:33;74995.16;;;-142.83;41.40
9129;BME280;4599;50.906;6.786;2022-07-29T17:49:52;75001.38;;;-142.83;40.90
9129;BME280;4599;50.906;6.786;2022-07-29T17:53:53;75003.47;;;-142.83;40.83
9129;BME280;4599;50.906;6.786;2022-07-29T17:57:55;75026.28;;;-142.83;41.71
9129;BME280;4599;50.906;6.786;2022-07-29T18:02:00;75040.81;;;-142.83;42.19
9129;BME280;4599;50.906;6.786;2022-07-29T18:06:03;75049.13;;;-142.83;41.25
9129;BME280;4599;50.906;6.786;2022-07-29T18:10:06;75065.72;;;-142.83;42.76
9129;BME280;4599;50.906;6.786;2022-07-29T18:14:08;75071.97;;;-142.83;41.88
9129;BME280;4599;50.906;6.786;2022-07-29T18:18:09;75061.59;;;-142.83;41.97
9129;BME280;4599;50.906;6.786;2022-07-29T18:22:12;75086.50;;;-142.83;42.37
9129;BME280;4599;50.906;6.786;2022-07-29T18:26:14;75071.97;;;-142.83;41.70
9129;BME280;4599;50.906;6.786;2022-07-29T18:30:15;75094.78;;;-142.83;42.44
9129;BME280;4599;50.906;6.786;2022-07-29T18:34:17;75082.34;;;-142.83;41.99
9129;BME280;4599;50.906;6.786;2022-07-29T18:38:20;75115.53;;;-142.83;43.12
9129;BME280;4599;50.906;6.786;2022-07-29T18:42:21;75132.16;;;-142.83;43.99
9129;BME280;4599;50.906;6.786;2022-07-29T18:46:23;75140.44;;;-142.83;44.36
9129;BME280;4599;50.906;6.786;2022-07-29T18:50:26;75179.88;;;-142.83;43.92
9129;BME280;4599;50.906;6.786;2022-07-29T18:54:31;75196.50;;;-142.83;44.70
9129;BME280;4599;50.906;6.786;2022-07-29T18:58:32;75211.03;;;-142.83;45.82
9129;BME280;4599;50.906;6.786;2022-07-29T19:02:34;75229.69;;;-142.83;45.37
9129;BME280;4599;50.906;6.786;2022-07-29T19:06:36;75244.22;;;-142.83;46.20
9129;BME280;4599;50.906;6.786;2022-07-29T19:10:39;75273.28;;;-142.83;46.78
9129;BME280;4599;50.906;6.786;2022-07-29T19:14:40;75285.75;;;-142.83;45.87
9129;BME280;4599;50.906;6.786;2022-07-29T19:18:42;75302.34;;;-142.83;46.82
9129;BME280;4599;50.906;6.786;2022-07-29T19:22:44;75335.56;;;-142.83;48.07
9129;BME280;4599;50.906;6.786;2022-07-29T19:26:46;75358.41;;;-142.83;48.59
9129;BME280;4599;50.906;6.786;2022-07-29T19:30:48;75385.38;;;-142.83;49.61
9129;BME280;4599;50.906;6.786;2022-07-29T19:34:50;75426.91;;;-142.83;49.66
9129;BME280;4599;50.906;6.786;2022-07-29T19:38:51;75451.81;;;-142.83;50.15
9129;BME280;4599;50.906;6.786;2022-07-29T19:42:55;75472.56;;;-142.83;49.98
9129;BME280;4599;50.906;6.786;2022-07-29T19:46:56;75501.63;;;-142.83;50.82
9129;BME280;4599;50.906;6.786;2022-07-29T19:50:58;75512.00;;;-142.83;51.00
9129;BME280;4599;50.906;6.786;2022-07-29T19:55:00;75526.53;;;-142.83;51.06
9129;BME280;4599;50.906;6.786;2022-07-29T19:59:09;75549.38;;;-142.83;51.28
9129;BME280;4599;50.906;6.786;2022-07-29T20:03:11;75574.28;;;-142.83;52.23
9129;BME280;4599;50.906;6.786;2022-07-29T20:07:12;75584.66;;;-142.83;52.25
9129;BME280;4599;50.906;6.786;2022-07-29T20:11:14;75592.97;;;-142.83;52.85
9129;BME280;4599;50.906;6.786;2022-07-29T20:15:18;75617.88;;;-142.83;52.77
9129;BME280;4599;50.906;6.786;2022-07-29T20:19:19;75626.16;;;-142.83;53.00
9129;BME280;4599;50.906;6.786;2022-07-29T20:23:21;75644.84;;;-142.83;53.08
9129;BME280;4599;50.906;6.786;2022-07-29T20:27:24;75649.00;;;-142.83;53.63
9129;BME280;4599;50.906;6.786;2022-07-29T20:31:27;75646.94;;;-142.83;53.49
9129;BME280;4599;50.906;6.786;2022-07-29T20:35:29;75640.69;;;-142.83;54.19
9129;BME280;4599;50.906;6.786;2022-07-29T20:39:30;75626.16;;;-142.83;53.49
9129;BME280;4599;50.906;6.786;2022-07-29T20:43:32;75622.03;;;-142.83;53.07
9129;BME280;4599;50.906;6.786;2022-07-29T20:47:41;75617.88;;;-142.83;53.29
9129;BME280;4599;50.906;6.786;2022-07-29T20:51:42;75619.94;;;-142.83;53.45
9129;BME280;4599;50.906;6.786;2022-07-29T20:55:44;75624.09;;;-142.83;52.96
9129;BME280;4599;50.906;6.786;2022-07-29T20:59:46;75619.94;;;-142.83;53.74
9129;BME280;4599;50.906;6.786;2022-07-29T21:03:49;75624.09;;;-142.83;55.15
9129;BME280;4599;50.906;6.786;2022-07-29T21:07:50;75628.25;;;-142.83;54.59
9129;BME280;4599;50.906;6.786;2022-07-29T21:11:59;75628.25;;;-142.83;53.85
9129;BME280;4599;50.906;6.786;2022-07-29T21:16:01;75630.31;;;-142.83;54.47
9129;BME280;4599;50.906;6.786;2022-07-29T21:20:12;75651.09;;;-142.83;54.16
9129;BME280;4599;50.906;6.786;2022-07-29T21:24:13;75665.63;;;-142.83;53.98
9129;BME280;4599;50.906;6.786;2022-07-29T21:28:15;75688.44;;;-142.83;53.93
9129;BME280;4599;50.906;6.786;2022-07-29T21:32:17;75692.59;;;-142.83;54.95
9129;BME280;4599;50.906;6.786;2022-07-29T21:36:32;75713.34;;;-142.83;55.58